sensor_id;sensor_type;location;lat;lon;timestamp;P1;durP1;ratioP1;P2;durP2;ratioP2
27539;SDS011;15906;52.046;4.724;2023-04-15T00:00:25;10.50;;;6.85;;
27539;SDS011;15906;52.046;4.724;2023-04-15T00:02:51;14.93;;;6.82;;
27539;SDS011;15906;52.046;4.724;2023-04-15T00:05:17;11.65;;;5.97;;
27539;SDS011;15906;52.046;4.724;2023-04-15T00:07:42;15.65;;;6.60;;
27539;SDS011;15906;52.046;4.724;2023-04-15T00:10:08;14.55;;;6.70;;
27539;SDS011;15906;52.046;4.724;2023-04-15T00:12:34;8.85;;;6.32;;
27539;SDS011;15906;52.046;4.724;2023-04-15T00:15:00;10.75;;;6.53;;
27539;SDS011;15906;52.046;4.724;2023-04-15T00:17:26;11.13;;;6.43;;
27539;SDS011;15906;52.046;4.724;2023-04-15T00:19:51;11.90;;;6.57;;
27539;SDS011;15906;52.046;4.724;2023-04-15T00:22:17;11.00;;;6.90;;
27539;SDS011;15906;52.046;4.724;2023-04-15T00:24:42;10.23;;;6.45;;
27539;SDS011;15906;52.046;4.724;2023-04-15T00:27:08;14.10;;;6.85;;
27539;SDS011;15906;52.046;4.724;2023-04-15T00:29:34;12.93;;;6.53;;
27539;SDS011;15906;52.046;4.724;2023-04-15T00:31:59;14.88;;;7.22;;
27539;SDS011;15906;52.046;4.724;2023-04-15T00:34:25;14.05;;;7.18;;
27539;SDS011;15906;52.046;4.724;2023-04-15T00:36:51;14.95;;;8.57;;
27539;SDS011;15906;52.046;4.724;2023-04-15T00:39:17;13.68;;;7.50;;
27539;SDS011;15906;52.046;4.724;2023-04-15T00:41:43;13.00;;;6.82;;
27539;SDS011;15906;52.046;4.724;2023-04-15T00:44:09;12.60;;;6.78;;
27539;SDS011;15906;52.046;4.724;2023-04-15T00:46:35;11.25;;;7.25;;
27539;SDS011;15906;52.046;4.724;2023-04-15T00:49:05;12.70;;;7.38;;
27539;SDS011;15906;52.046;4.724;2023-04-15T00:51:32;10.50;;;6.68;;
27539;SDS011;15906;52.046;4.724;2023-04-15T00:54:00;11.10;;;7.32;;
27539;SDS011;15906;52.046;4.724;2023-04-15T00:56:28;10.32;;;7.00;;
27539;SDS011;15906;52.046;4.724;2023-04-15T00:58:55;12.77;;;6.60;;
27539;SDS011;15906;52.046;4.724;2023-04-15T01:01:21;10.07;;;6.90;;
27539;SDS011;15906;52.046;4.724;2023-04-15T01:03:49;10.75;;;6.00;;
27539;SDS011;15906;52.046;4.724;2023-04-15T01:06:15;13.23;;;7.82;;
27539;SDS011;15906;52.046;4.724;2023-04-15T01:08:41;12.30;;;8.13;;
27539;SDS011;15906;52.046;4.724;2023-04-15T01:11:07;11.23;;;6.60;;
27539;SDS011;15906;52.046;4.724;2023-04-15T01:13:34;11.95;;;7.32;;
27539;SDS011;15906;52.046;4.724;2023-04-15T01:16:00;12.65;;;7.50;;
27539;SDS011;15906;52.046;4.724;2023-04-15T01:18:27;11.32;;;7.05;;
27539;SDS011;15906;52.046;4.724;2023-04-15T01:20:53;12.40;;;6.85;;
27539;SDS011;15906;52.046;4.724;2023-04-15T01:23:19;16.75;;;6.80;;
27539;SDS011;15906;52.046;4.724;2023-04-15T01:25:47;9.65;;;7.88;;
27539;SDS011;15906;52.046;4.724;2023-04-15T01:28:13;9.77;;;6.78;;
27539;SDS011;15906;52.046;4.724;2023-04-15T01:30:40;15.40;;;7.63;;
27539;SDS011;15906;52.046;4.724;2023-04-15T01:33:05;14.05;;;7.38;;
27539;SDS011;15906;52.046;4.724;2023-04-15T01:35:31;9.63;;;7.53;;
27539;SDS011;15906;52.046;4.724;2023-04-15T01:37:59;15.52;;;7.40;;
27539;SDS011;15906;52.046;4.724;2023-04-15T01:40:31;12.68;;;7.18;;
27539;SDS011;15906;52.046;4.724;2023-04-15T01:42:58;10.32;;;7.57;;
27539;SDS011;15906;52.046;4.724;2023-04-15T01:45:23;11.57;;;7.22;;
27539;SDS011;15906;52.046;4.724;2023-04-15T01:47:49;11.82;;;7.18;;
27539;SDS011;15906;52.046;4.724;2023-04-15T01:50:15;12.13;;;7.82;;
27539;SDS011;15906;52.046;4.724;2023-04-15T01:52:40;13.63;;;7.90;;
27539;SDS011;15906;52.046;4.724;2023-04-15T01:55:06;13.88;;;8.00;;
27539;SDS011;15906;52.046;4.724;2023-04-15T01:57:33;12.85;;;7.55;;
27539;SDS011;15906;52.046;4.724;2023-04-15T01:59:59;12.98;;;8.07;;
27539;SDS011;15906;52.046;4.724;2023-04-15T02:02:24;10.27;;;7.53;;
27539;SDS011;15906;52.046;4.724;2023-04-15T02:04:50;15.27;;;7.45;;
27539;SDS011;15906;52.046;4.724;2023-04-15T02:07:16;11.35;;;7.65;;
27539;SDS011;15906;52.046;4.724;2023-04-15T02:09:41;12.55;;;8.48;;
27539;SDS011;15906;52.046;4.724;2023-04-15T02:12:07;13.52;;;7.78;;
27539;SDS011;15906;52.046;4.724;2023-04-15T02:14:33;15.35;;;8.18;;
27539;SDS011;15906;52.046;4.724;2023-04-15T02:16:59;14.02;;;8.18;;
27539;SDS011;15906;52.046;4.724;2023-04-15T02:19:31;11.95;;;8.35;;
27539;SDS011;15906;52.046;4.724;2023-04-15T02:21:59;13.02;;;8.35;;
27539;SDS011;15906;52.046;4.724;2023-04-15T02:24:29;14.70;;;8.05;;
27539;SDS011;15906;52.046;4.724;2023-04-15T02:26:55;10.63;;;7.75;;
27539;SDS011;15906;52.046;4.724;2023-04-15T02:29:21;11.45;;;7.88;;
27539;SDS011;15906;52.046;4.724;2023-04-15T02:31:49;15.02;;;8.70;;
27539;SDS011;15906;52.046;4.724;2023-04-15T02:34:15;13.60;;;7.78;;
27539;SDS011;15906;52.046;4.724;2023-04-15T02:36:40;12.38;;;8.20;;
27539;SDS011;15906;52.046;4.724;2023-04-15T02:39:06;9.93;;;7.18;;
27539;SDS011;15906;52.046;4.724;2023-04-15T02:41:31;12.07;;;8.32;;
27539;SDS011;15906;52.046;4.724;2023-04-15T02:43:57;15.52;;;8.70;;
27539;SDS011;15906;52.046;4.724;2023-04-15T02:46:23;9.75;;;7.32;;
27539;SDS011;15906;52.046;4.724;2023-04-15T02:48:48;10.80;;;7.90;;
27539;SDS011;15906;52.046;4.724;2023-04-15T02:51:15;11.98;;;7.88;;
27539;SDS011;15906;52.046;4.724;2023-04-15T02:53:45;15.85;;;8.23;;
27539;SDS011;15906;52.046;4.724;2023-04-15T02:56:12;11.75;;;7.47;;
27539;SDS011;15906;52.046;4.724;2023-04-15T02:58:39;11.15;;;8.23;;
27539;SDS011;15906;52.046;4.724;2023-04-15T03:01:05;10.93;;;7.55;;
27539;SDS011;15906;52.046;4.724;2023-04-15T03:03:31;10.75;;;7.70;;
27539;SDS011;15906;52.046;4.724;2023-04-15T03:05:57;13.02;;;7.63;;
27539;SDS011;15906;52.046;4.724;2023-04-15T03:08:22;16.45;;;8.20;;
27539;SDS011;15906;52.046;4.724;2023-04-15T03:10:48;11.50;;;7.95;;
27539;SDS011;15906;52.046;4.724;2023-04-15T03:13:16;12.40;;;7.38;;
27539;SDS011;15906;52.046;4.724;2023-04-15T03:15:42;10.38;;;7.57;;
27539;SDS011;15906;52.046;4.724;2023-04-15T03:18:07;13.35;;;8.05;;
27539;SDS011;15906;52.046;4.724;2023-04-15T03:20:33;11.32;;;8.50;;
27539;SDS011;15906;52.046;4.724;2023-04-15T03:22:59;11.75;;;7.75;;
27539;SDS011;15906;52.046;4.724;2023-04-15T03:25:25;12.05;;;8.00;;
27539;SDS011;15906;52.046;4.724;2023-04-15T03:27:51;10.63;;;7.78;;
27539;SDS011;15906;52.046;4.724;2023-04-15T03:30:16;10.60;;;7.25;;
27539;SDS011;15906;52.046;4.724;2023-04-15T03:32:42;14.07;;;8.65;;
27539;SDS011;15906;52.046;4.724;2023-04-15T03:35:08;11.68;;;8.02;;
27539;SDS011;15906;52.046;4.724;2023-04-15T03:37:33;10.25;;;8.27;;
27539;SDS011;15906;52.046;4.724;2023-04-15T03:39:59;11.77;;;8.07;;
27539;SDS011;15906;52.046;4.724;2023-04-15T03:42:25;12.43;;;7.72;;
27539;SDS011;15906;52.046;4.724;2023-04-15T03:44:51;13.82;;;8.93;;
27539;SDS011;15906;52.046;4.724;2023-04-15T03:47:16;13.18;;;8.60;;
27539;SDS011;15906;52.046;4.724;2023-04-15T03:49:42;13.02;;;8.02;;
27539;SDS011;15906;52.046;4.724;2023-04-15T03:52:07;14.05;;;8.30;;
27539;SDS011;15906;52.046;4.724;2023-04-15T03:54:33;14.73;;;8.32;;
27539;SDS011;15906;52.046;4.724;2023-04-15T03:56:58;13.05;;;7.97;;
27539;SDS011;15906;52.046;4.724;2023-04-15T03:59:24;15.23;;;8.85;;
27539;SDS011;15906;52.046;4.724;2023-04-15T04:01:49;15.88;;;8.90;;
27539;SDS011;15906;52.046;4.724;2023-04-15T04:04:15;21.33;;;9.02;;
27539;SDS011;15906;52.046;4.724;2023-04-15T04:06:40;12.10;;;8.23;;
27539;SDS011;15906;52.046;4.724;2023-04-15T04:09:06;16.60;;;9.00;;
27539;SDS011;15906;52.046;4.724;2023-04-15T04:11:31;12.20;;;8.60;;
27539;SDS011;15906;52.046;4.724;2023-04-15T04:13:57;14.55;;;8.40;;
27539;SDS011;15906;52.046;4.724;2023-04-15T04:16:23;12.35;;;8.38;;
27539;SDS011;15906;52.046;4.724;2023-04-15T04:18:48;11.85;;;8.27;;
27539;SDS011;15906;52.046;4.724;2023-04-15T04:21:14;13.52;;;8.60;;
27539;SDS011;15906;52.046;4.724;2023-04-15T04:23:40;18.95;;;9.50;;
27539;SDS011;15906;52.046;4.724;2023-04-15T04:26:05;12.05;;;9.00;;
27539;SDS011;15906;52.046;4.724;2023-04-15T04:28:31;12.35;;;8.93;;
27539;SDS011;15906;52.046;4.724;2023-04-15T04:30:56;16.40;;;8.73;;
27539;SDS011;15906;52.046;4.724;2023-04-15T04:33:22;17.17;;;9.07;;
27539;SDS011;15906;52.046;4.724;2023-04-15T04:35:48;16.55;;;8.80;;
27539;SDS011;15906;52.046;4.724;2023-04-15T04:38:13;13.18;;;8.60;;
27539;SDS011;15906;52.046;4.724;2023-04-15T04:40:39;13.50;;;8.30;;
27539;SDS011;15906;52.046;4.724;2023-04-15T04:43:05;11.32;;;8.40;;
27539;SDS011;15906;52.046;4.724;2023-04-15T04:45:30;12.60;;;9.00;;
27539;SDS011;15906;52.046;4.724;2023-04-15T04:47:56;15.68;;;9.43;;
27539;SDS011;15906;52.046;4.724;2023-04-15T04:50:21;14.35;;;8.65;;
27539;SDS011;15906;52.046;4.724;2023-04-15T04:52:47;13.63;;;8.38;;
27539;SDS011;15906;52.046;4.724;2023-04-15T04:55:12;14.73;;;8.63;;
27539;SDS011;15906;52.046;4.724;2023-04-15T04:57:38;15.85;;;8.80;;
27539;SDS011;15906;52.046;4.724;2023-04-15T05:00:04;10.98;;;8.43;;
27539;SDS011;15906;52.046;4.724;2023-04-15T05:02:32;17.38;;;9.32;;
27539;SDS011;15906;52.046;4.724;2023-04-15T05:04:58;15.25;;;9.35;;
27539;SDS011;15906;52.046;4.724;2023-04-15T05:07:23;13.95;;;9.20;;
27539;SDS011;15906;52.046;4.724;2023-04-15T05:09:49;10.95;;;8.60;;
27539;SDS011;15906;52.046;4.724;2023-04-15T05:12:14;13.50;;;8.65;;
27539;SDS011;15906;52.046;4.724;2023-04-15T05:14:40;14.00;;;9.43;;
27539;SDS011;15906;52.046;4.724;2023-04-15T05:17:06;17.95;;;9.13;;
27539;SDS011;15906;52.046;4.724;2023-04-15T05:19:32;14.13;;;8.82;;
27539;SDS011;15906;52.046;4.724;2023-04-15T05:21:58;14.70;;;9.10;;
27539;SDS011;15906;52.046;4.724;2023-04-15T05:24:24;14.52;;;9.70;;
27539;SDS011;15906;52.046;4.724;2023-04-15T05:26:49;13.70;;;9.57;;
27539;SDS011;15906;52.046;4.724;2023-04-15T05:29:15;14.40;;;9.27;;
27539;SDS011;15906;52.046;4.724;2023-04-15T05:31:40;14.32;;;10.25;;
27539;SDS011;15906;52.046;4.724;2023-04-15T05:34:07;16.50;;;9.02;;
27539;SDS011;15906;52.046;4.724;2023-04-15T05:36:32;13.65;;;9.38;;
27539;SDS011;15906;52.046;4.724;2023-04-15T05:38:58;15.85;;;9.45;;
27539;SDS011;15906;52.046;4.724;2023-04-15T05:41:23;17.92;;;9.85;;
27539;SDS011;15906;52.046;4.724;2023-04-15T05:43:49;14.32;;;9.05;;
27539;SDS011;15906;52.046;4.724;2023-04-15T05:46:15;18.05;;;9.73;;
27539;SDS011;15906;52.046;4.724;2023-04-15T05:48:40;13.55;;;8.85;;
27539;SDS011;15906;52.046;4.724;2023-04-15T05:51:06;14.93;;;9.05;;
27539;SDS011;15906;52.046;4.724;2023-04-15T05:53:32;14.38;;;9.20;;
27539;SDS011;15906;52.046;4.724;2023-04-15T05:55:57;18.58;;;9.18;;
27539;SDS011;15906;52.046;4.724;2023-04-15T05:58:23;15.43;;;9.73;;
27539;SDS011;15906;52.046;4.724;2023-04-15T06:00:48;14.55;;;10.63;;
27539;SDS011;15906;52.046;4.724;2023-04-15T06:03:14;13.75;;;9.45;;
27539;SDS011;15906;52.046;4.724;2023-04-15T06:05:40;13.57;;;9.88;;
27539;SDS011;15906;52.046;4.724;2023-04-15T06:08:06;13.27;;;9.40;;
27539;SDS011;15906;52.046;4.724;2023-04-15T06:10:33;13.88;;;9.65;;
27539;SDS011;15906;52.046;4.724;2023-04-15T06:13:00;17.50;;;9.52;;
27539;SDS011;15906;52.046;4.724;2023-04-15T06:15:27;14.95;;;10.18;;
27539;SDS011;15906;52.046;4.724;2023-04-15T06:17:53;14.63;;;9.90;;
27539;SDS011;15906;52.046;4.724;2023-04-15T06:20:19;15.65;;;9.60;;
27539;SDS011;15906;52.046;4.724;2023-04-15T06:22:44;16.02;;;10.88;;
27539;SDS011;15906;52.046;4.724;2023-04-15T06:25:10;13.90;;;10.13;;
27539;SDS011;15906;52.046;4.724;2023-04-15T06:27:35;16.52;;;10.20;;
27539;SDS011;15906;52.046;4.724;2023-04-15T06:30:01;14.55;;;8.98;;
27539;SDS011;15906;52.046;4.724;2023-04-15T06:32:26;16.10;;;9.85;;
27539;SDS011;15906;52.046;4.724;2023-04-15T06:34:52;16.55;;;10.13;;
27539;SDS011;15906;52.046;4.724;2023-04-15T06:37:18;14.65;;;9.95;;
27539;SDS011;15906;52.046;4.724;2023-04-15T06:39:43;12.85;;;9.68;;
27539;SDS011;15906;52.046;4.724;2023-04-15T06:42:12;16.15;;;8.63;;
27539;SDS011;15906;52.046;4.724;2023-04-15T06:44:38;13.25;;;9.52;;
27539;SDS011;15906;52.046;4.724;2023-04-15T06:47:03;13.55;;;9.07;;
27539;SDS011;15906;52.046;4.724;2023-04-15T06:49:29;13.60;;;8.77;;
27539;SDS011;15906;52.046;4.724;2023-04-15T06:51:55;12.90;;;8.95;;
27539;SDS011;15906;52.046;4.724;2023-04-15T06:54:20;10.85;;;8.13;;
27539;SDS011;15906;52.046;4.724;2023-04-15T06:56:46;11.95;;;8.18;;
27539;SDS011;15906;52.046;4.724;2023-04-15T06:59:12;14.40;;;8.90;;
27539;SDS011;15906;52.046;4.724;2023-04-15T07:01:39;12.38;;;8.70;;
27539;SDS011;15906;52.046;4.724;2023-04-15T07:04:05;11.77;;;7.93;;
27539;SDS011;15906;52.046;4.724;2023-04-15T07:06:30;12.25;;;8.23;;
27539;SDS011;15906;52.046;4.724;2023-04-15T07:08:57;11.98;;;8.30;;
27539;SDS011;15906;52.046;4.724;2023-04-15T07:11:22;14.80;;;9.23;;
27539;SDS011;15906;52.046;4.724;2023-04-15T07:13:49;14.57;;;8.57;;
27539;SDS011;15906;52.046;4.724;2023-04-15T07:16:15;11.38;;;8.18;;
27539;SDS011;15906;52.046;4.724;2023-04-15T07:18:41;15.25;;;9.88;;
27539;SDS011;15906;52.046;4.724;2023-04-15T07:21:07;12.38;;;8.20;;
27539;SDS011;15906;52.046;4.724;2023-04-15T07:23:33;12.93;;;8.85;;
27539;SDS011;15906;52.046;4.724;2023-04-15T07:25:58;13.00;;;8.60;;
27539;SDS011;15906;52.046;4.724;2023-04-15T07:28:25;12.88;;;9.27;;
27539;SDS011;15906;52.046;4.724;2023-04-15T07:30:50;13.77;;;8.60;;
27539;SDS011;15906;52.046;4.724;2023-04-15T07:33:16;12.13;;;9.15;;
27539;SDS011;15906;52.046;4.724;2023-04-15T07:35:41;12.98;;;9.35;;
27539;SDS011;15906;52.046;4.724;2023-04-15T07:38:07;12.43;;;9.77;;
27539;SDS011;15906;52.046;4.724;2023-04-15T07:40:33;12.00;;;9.10;;
27539;SDS011;15906;52.046;4.724;2023-04-15T07:42:58;13.70;;;8.90;;
27539;SDS011;15906;52.046;4.724;2023-04-15T07:45:24;12.77;;;9.18;;
27539;SDS011;15906;52.046;4.724;2023-04-15T07:47:49;13.77;;;9.82;;
27539;SDS011;15906;52.046;4.724;2023-04-15T07:50:15;11.35;;;8.82;;
27539;SDS011;15906;52.046;4.724;2023-04-15T07:52:41;12.77;;;8.50;;
27539;SDS011;15906;52.046;4.724;2023-04-15T07:55:07;13.60;;;8.93;;
27539;SDS011;15906;52.046;4.724;2023-04-15T07:57:34;11.40;;;8.82;;
27539;SDS011;15906;52.046;4.724;2023-04-15T08:00:00;11.00;;;8.45;;
27539;SDS011;15906;52.046;4.724;2023-04-15T08:02:28;11.82;;;7.88;;
27539;SDS011;15906;52.046;4.724;2023-04-15T08:04:53;12.57;;;8.85;;
27539;SDS011;15906;52.046;4.724;2023-04-15T08:07:19;12.38;;;7.97;;
27539;SDS011;15906;52.046;4.724;2023-04-15T08:09:45;10.40;;;7.78;;
27539;SDS011;15906;52.046;4.724;2023-04-15T08:12:11;10.43;;;7.10;;
27539;SDS011;15906;52.046;4.724;2023-04-15T08:14:37;10.48;;;6.85;;
27539;SDS011;15906;52.046;4.724;2023-04-15T08:17:03;9.35;;;6.10;;
27539;SDS011;15906;52.046;4.724;2023-04-15T08:19:29;10.95;;;8.65;;
27539;SDS011;15906;52.046;4.724;2023-04-15T08:21:55;11.82;;;7.45;;
27539;SDS011;15906;52.046;4.724;2023-04-15T08:24:21;8.68;;;6.18;;
27539;SDS011;15906;52.046;4.724;2023-04-15T08:26:46;8.88;;;5.60;;
27539;SDS011;15906;52.046;4.724;2023-04-15T08:29:12;8.32;;;6.13;;
27539;SDS011;15906;52.046;4.724;2023-04-15T08:31:38;8.05;;;6.35;;
27539;SDS011;15906;52.046;4.724;2023-04-15T08:34:03;8.93;;;6.43;;
27539;SDS011;15906;52.046;4.724;2023-04-15T08:36:29;11.50;;;6.70;;
27539;SDS011;15906;52.046;4.724;2023-04-15T08:38:56;12.07;;;6.85;;
27539;SDS011;15906;52.046;4.724;2023-04-15T08:41:22;13.73;;;6.60;;
27539;SDS011;15906;52.046;4.724;2023-04-15T08:44:00;9.55;;;6.63;;
27539;SDS011;15906;52.046;4.724;2023-04-15T08:46:29;8.82;;;6.63;;
27539;SDS011;15906;52.046;4.724;2023-04-15T08:48:56;10.27;;;7.07;;
27539;SDS011;15906;52.046;4.724;2023-04-15T08:51:23;9.55;;;6.72;;
27539;SDS011;15906;52.046;4.724;2023-04-15T08:53:49;8.85;;;7.05;;
27539;SDS011;15906;52.046;4.724;2023-04-15T08:56:15;8.35;;;6.72;;
27539;SDS011;15906;52.046;4.724;2023-04-15T08:58:42;11.82;;;6.68;;
27539;SDS011;15906;52.046;4.724;2023-04-15T09:01:09;12.23;;;7.10;;
27539;SDS011;15906;52.046;4.724;2023-04-15T09:03:36;10.60;;;6.13;;
27539;SDS011;15906;52.046;4.724;2023-04-15T09:06:03;11.60;;;7.18;;
27539;SDS011;15906;52.046;4.724;2023-04-15T09:08:29;9.85;;;6.40;;
27539;SDS011;15906;52.046;4.724;2023-04-15T09:10:55;9.93;;;7.05;;
27539;SDS011;15906;52.046;4.724;2023-04-15T09:13:21;9.43;;;6.40;;
27539;SDS011;15906;52.046;4.724;2023-04-15T09:15:46;9.38;;;6.43;;
27539;SDS011;15906;52.046;4.724;2023-04-15T09:18:13;10.18;;;6.25;;
27539;SDS011;15906;52.046;4.724;2023-04-15T09:21:04;7.88;;;6.00;;
27539;SDS011;15906;52.046;4.724;2023-04-15T09:23:35;9.45;;;5.95;;
27539;SDS011;15906;52.046;4.724;2023-04-15T09:26:02;9.00;;;6.05;;
27539;SDS011;15906;52.046;4.724;2023-04-15T09:28:28;9.18;;;5.70;;
27539;SDS011;15906;52.046;4.724;2023-04-15T09:30:58;8.98;;;6.10;;
27539;SDS011;15906;52.046;4.724;2023-04-15T09:33:25;8.13;;;5.22;;
27539;SDS011;15906;52.046;4.724;2023-04-15T09:36:02;7.18;;;5.53;;
27539;SDS011;15906;52.046;4.724;2023-04-15T09:38:29;7.68;;;5.43;;
27539;SDS011;15906;52.046;4.724;2023-04-15T09:40:55;10.10;;;5.57;;
27539;SDS011;15906;52.046;4.724;2023-04-15T09:43:22;8.40;;;5.10;;
27539;SDS011;15906;52.046;4.724;2023-04-15T09:46:00;8.57;;;4.20;;
27539;SDS011;15906;52.046;4.724;2023-04-15T09:48:26;6.78;;;4.55;;
27539;SDS011;15906;52.046;4.724;2023-04-15T09:50:52;6.25;;;3.90;;
27539;SDS011;15906;52.046;4.724;2023-04-15T09:53:22;6.18;;;3.42;;
27539;SDS011;15906;52.046;4.724;2023-04-15T09:55:56;9.05;;;3.05;;
27539;SDS011;15906;52.046;4.724;2023-04-15T09:58:23;4.60;;;2.97;;
27539;SDS011;15906;52.046;4.724;2023-04-15T10:00:54;5.47;;;2.65;;
27539;SDS011;15906;52.046;4.724;2023-04-15T10:03:24;7.05;;;3.25;;
27539;SDS011;15906;52.046;4.724;2023-04-15T10:05:53;6.90;;;3.72;;
27539;SDS011;15906;52.046;4.724;2023-04-15T10:08:24;7.90;;;3.17;;
27539;SDS011;15906;52.046;4.724;2023-04-15T10:10:52;6.45;;;3.03;;
27539;SDS011;15906;52.046;4.724;2023-04-15T10:13:18;6.50;;;3.60;;
27539;SDS011;15906;52.046;4.724;2023-04-15T10:15:50;5.85;;;3.42;;
27539;SDS011;15906;52.046;4.724;2023-04-15T10:18:31;6.05;;;3.33;;
27539;SDS011;15906;52.046;4.724;2023-04-15T10:20:59;5.15;;;3.20;;
27539;SDS011;15906;52.046;4.724;2023-04-15T10:23:25;5.18;;;3.13;;
27539;SDS011;15906;52.046;4.724;2023-04-15T10:25:52;6.43;;;3.70;;
27539;SDS011;15906;52.046;4.724;2023-04-15T10:28:18;5.47;;;3.60;;
27539;SDS011;15906;52.046;4.724;2023-04-15T10:30:44;6.03;;;3.53;;
27539;SDS011;15906;52.046;4.724;2023-04-15T10:33:12;5.55;;;4.03;;
27539;SDS011;15906;52.046;4.724;2023-04-15T10:35:40;4.82;;;3.40;;
27539;SDS011;15906;52.046;4.724;2023-04-15T10:38:30;4.53;;;2.95;;
27539;SDS011;15906;52.046;4.724;2023-04-15T10:40:54;4.57;;;2.85;;
27539;SDS011;15906;52.046;4.724;2023-04-15T10:46:41;5.78;;;3.17;;
27539;SDS011;15906;52.046;4.724;2023-04-15T10:49:14;5.68;;;3.13;;
27539;SDS011;15906;52.046;4.724;2023-04-15T10:54:53;4.05;;;3.00;;
27539;SDS011;15906;52.046;4.724;2023-04-15T10:59:31;4.18;;;2.70;;
27539;SDS011;15906;52.046;4.724;2023-04-15T11:02:00;6.80;;;3.42;;
27539;SDS011;15906;52.046;4.724;2023-04-15T11:10:02;6.43;;;4.10;;
27539;SDS011;15906;52.046;4.724;2023-04-15T11:12:49;6.22;;;4.45;;
27539;SDS011;15906;52.046;4.724;2023-04-15T11:15:34;8.15;;;4.68;;
27539;SDS011;15906;52.046;4.724;2023-04-15T11:20:37;5.50;;;4.05;;
27539;SDS011;15906;52.046;4.724;2023-04-15T11:23:05;6.70;;;4.13;;
27539;SDS011;15906;52.046;4.724;2023-04-15T11:25:32;7.85;;;4.60;;
27539;SDS011;15906;52.046;4.724;2023-04-15T11:28:00;6.57;;;4.00;;
27539;SDS011;15906;52.046;4.724;2023-04-15T11:30:27;7.00;;;4.32;;
27539;SDS011;15906;52.046;4.724;2023-04-15T11:32:57;6.57;;;4.25;;
27539;SDS011;15906;52.046;4.724;2023-04-15T11:35:24;7.80;;;4.03;;
27539;SDS011;15906;52.046;4.724;2023-04-15T11:37:49;8.60;;;3.92;;
27539;SDS011;15906;52.046;4.724;2023-04-15T11:40:15;9.10;;;4.18;;
27539;SDS011;15906;52.046;4.724;2023-04-15T11:42:46;6.00;;;3.88;;
27539;SDS011;15906;52.046;4.724;2023-04-15T11:45:27;6.60;;;3.88;;
27539;SDS011;15906;52.046;4.724;2023-04-15T11:47:53;5.43;;;3.80;;
27539;SDS011;15906;52.046;4.724;2023-04-15T11:50:19;7.88;;;3.78;;
27539;SDS011;15906;52.046;4.724;2023-04-15T11:52:56;5.13;;;3.20;;
27539;SDS011;15906;52.046;4.724;2023-04-15T11:55:23;4.05;;;3.15;;
27539;SDS011;15906;52.046;4.724;2023-04-15T11:57:49;6.35;;;3.85;;
27539;SDS011;15906;52.046;4.724;2023-04-15T12:00:29;7.10;;;3.30;;
27539;SDS011;15906;52.046;4.724;2023-04-15T12:03:10;6.93;;;3.47;;
27539;SDS011;15906;52.046;4.724;2023-04-15T12:06:01;5.13;;;3.45;;
27539;SDS011;15906;52.046;4.724;2023-04-15T12:13:55;3.80;;;2.90;;
27539;SDS011;15906;52.046;4.724;2023-04-15T12:16:22;3.80;;;2.58;;
27539;SDS011;15906;52.046;4.724;2023-04-15T12:18:53;5.45;;;2.40;;
27539;SDS011;15906;52.046;4.724;2023-04-15T12:21:26;3.53;;;2.25;;
27539;SDS011;15906;52.046;4.724;2023-04-15T12:23:57;3.60;;;2.53;;
27539;SDS011;15906;52.046;4.724;2023-04-15T12:26:26;3.60;;;2.83;;
27539;SDS011;15906;52.046;4.724;2023-04-15T12:28:54;4.18;;;2.10;;
27539;SDS011;15906;52.046;4.724;2023-04-15T12:31:21;3.67;;;2.53;;
27539;SDS011;15906;52.046;4.724;2023-04-15T12:33:47;3.92;;;2.10;;
27539;SDS011;15906;52.046;4.724;2023-04-15T12:36:13;6.22;;;2.33;;
27539;SDS011;15906;52.046;4.724;2023-04-15T12:38:39;4.68;;;2.65;;
27539;SDS011;15906;52.046;4.724;2023-04-15T12:41:05;6.30;;;2.60;;
27539;SDS011;15906;52.046;4.724;2023-04-15T12:43:30;3.75;;;2.20;;
27539;SDS011;15906;52.046;4.724;2023-04-15T12:45:56;4.22;;;2.72;;
27539;SDS011;15906;52.046;4.724;2023-04-15T12:48:22;3.00;;;2.08;;
27539;SDS011;15906;52.046;4.724;2023-04-15T12:50:47;3.13;;;2.20;;
27539;SDS011;15906;52.046;4.724;2023-04-15T12:53:13;3.92;;;1.98;;
27539;SDS011;15906;52.046;4.724;2023-04-15T12:55:38;4.40;;;2.28;;
27539;SDS011;15906;52.046;4.724;2023-04-15T12:58:04;2.58;;;1.92;;
27539;SDS011;15906;52.046;4.724;2023-04-15T13:00:29;4.20;;;1.95;;
27539;SDS011;15906;52.046;4.724;2023-04-15T13:02:58;4.07;;;1.88;;
27539;SDS011;15906;52.046;4.724;2023-04-15T13:05:24;3.95;;;2.00;;
27539;SDS011;15906;52.046;4.724;2023-04-15T13:07:49;2.67;;;1.80;;
27539;SDS011;15906;52.046;4.724;2023-04-15T13:10:15;5.32;;;2.20;;
27539;SDS011;15906;52.046;4.724;2023-04-15T13:12:41;4.28;;;2.67;;
27539;SDS011;15906;52.046;4.724;2023-04-15T13:15:06;5.05;;;2.45;;
27539;SDS011;15906;52.046;4.724;2023-04-15T13:17:35;4.93;;;2.22;;
27539;SDS011;15906;52.046;4.724;2023-04-15T13:20:00;3.75;;;2.72;;
27539;SDS011;15906;52.046;4.724;2023-04-15T13:22:26;5.78;;;2.40;;
27539;SDS011;15906;52.046;4.724;2023-04-15T13:24:51;2.47;;;1.80;;
27539;SDS011;15906;52.046;4.724;2023-04-15T13:27:17;5.25;;;2.28;;
27539;SDS011;15906;52.046;4.724;2023-04-15T13:29:42;3.25;;;1.98;;
27539;SDS011;15906;52.046;4.724;2023-04-15T13:32:08;2.38;;;1.90;;
27539;SDS011;15906;52.046;4.724;2023-04-15T13:34:33;2.78;;;2.00;;
27539;SDS011;15906;52.046;4.724;2023-04-15T13:37:04;3.42;;;1.67;;
27539;SDS011;15906;52.046;4.724;2023-04-15T13:39:31;2.40;;;1.63;;
27539;SDS011;15906;52.046;4.724;2023-04-15T13:41:56;3.65;;;1.88;;
27539;SDS011;15906;52.046;4.724;2023-04-15T13:44:22;9.88;;;2.30;;
27539;SDS011;15906;52.046;4.724;2023-04-15T13:46:47;2.60;;;1.73;;
27539;SDS011;15906;52.046;4.724;2023-04-15T13:49:13;3.65;;;1.70;;
27539;SDS011;15906;52.046;4.724;2023-04-15T13:51:38;5.75;;;1.80;;
27539;SDS011;15906;52.046;4.724;2023-04-15T13:54:04;6.88;;;3.10;;
27539;SDS011;15906;52.046;4.724;2023-04-15T13:56:30;4.65;;;2.10;;
27539;SDS011;15906;52.046;4.724;2023-04-15T13:58:55;3.15;;;1.58;;
27539;SDS011;15906;52.046;4.724;2023-04-15T14:01:23;5.40;;;1.75;;
27539;SDS011;15906;52.046;4.724;2023-04-15T14:03:49;3.97;;;1.60;;
27539;SDS011;15906;52.046;4.724;2023-04-15T14:06:15;2.65;;;1.70;;
27539;SDS011;15906;52.046;4.724;2023-04-15T14:08:40;4.10;;;2.00;;
27539;SDS011;15906;52.046;4.724;2023-04-15T14:11:06;2.83;;;1.55;;
27539;SDS011;15906;52.046;4.724;2023-04-15T14:13:31;6.40;;;1.70;;
27539;SDS011;15906;52.046;4.724;2023-04-15T14:15:57;2.53;;;1.60;;
27539;SDS011;15906;52.046;4.724;2023-04-15T14:18:23;3.22;;;1.40;;
27539;SDS011;15906;52.046;4.724;2023-04-15T14:20:48;4.50;;;1.45;;
27539;SDS011;15906;52.046;4.724;2023-04-15T14:23:14;3.10;;;2.05;;
27539;SDS011;15906;52.046;4.724;2023-04-15T14:25:40;2.30;;;1.40;;
27539;SDS011;15906;52.046;4.724;2023-04-15T14:28:05;6.07;;;1.70;;
27539;SDS011;15906;52.046;4.724;2023-04-15T14:30:31;2.47;;;1.63;;
27539;SDS011;15906;52.046;4.724;2023-04-15T14:32:56;5.10;;;1.73;;
27539;SDS011;15906;52.046;4.724;2023-04-15T14:35:22;4.10;;;1.80;;
27539;SDS011;15906;52.046;4.724;2023-04-15T14:37:50;4.70;;;1.83;;
27539;SDS011;15906;52.046;4.724;2023-04-15T14:40:17;3.80;;;1.25;;
27539;SDS011;15906;52.046;4.724;2023-04-15T14:42:42;3.67;;;1.60;;
27539;SDS011;15906;52.046;4.724;2023-04-15T14:45:08;3.45;;;1.80;;
27539;SDS011;15906;52.046;4.724;2023-04-15T14:47:34;4.97;;;1.80;;
27539;SDS011;15906;52.046;4.724;2023-04-15T14:50:00;4.45;;;1.63;;
27539;SDS011;15906;52.046;4.724;2023-04-15T14:52:26;6.35;;;1.40;;
27539;SDS011;15906;52.046;4.724;2023-04-15T14:54:51;5.13;;;1.52;;
27539;SDS011;15906;52.046;4.724;2023-04-15T14:57:17;4.22;;;1.42;;
27539;SDS011;15906;52.046;4.724;2023-04-15T14:59:42;3.33;;;1.20;;